sensor_id;sensor_type;location;lat;lon;timestamp;P1;durP1;ratioP1;P2;durP2;ratioP2
60999;SDS011;46879;45.658;11.814;2022-10-16T00:02:46;15.47;;;10.23;;
60999;SDS011;46879;45.658;11.814;2022-10-16T00:07:46;17.83;;;10.80;;
60999;SDS011;46879;45.658;11.814;2022-10-16T00:12:46;13.00;;;10.10;;
60999;SDS011;46879;45.658;11.814;2022-10-16T00:17:46;15.38;;;10.02;;
60999;SDS011;46879;45.658;11.814;2022-10-16T00:22:47;13.20;;;9.02;;
60999;SDS011;46879;45.658;11.814;2022-10-16T00:27:47;11.25;;;8.82;;
60999;SDS011;46879;45.658;11.814;2022-10-16T00:32:47;11.57;;;9.35;;
60999;SDS011;46879;45.658;11.814;2022-10-16T00:37:48;11.27;;;8.63;;
60999;SDS011;46879;45.658;11.814;2022-10-16T00:42:48;11.10;;;9.23;;
60999;SDS011;46879;45.658;11.814;2022-10-16T00:47:48;11.60;;;9.43;;
60999;SDS011;46879;45.658;11.814;2022-10-16T00:52:51;14.25;;;9.50;;
60999;SDS011;46879;45.658;11.814;2022-10-16T00:57:51;11.33;;;8.70;;
60999;SDS011;46879;45.658;11.814;2022-10-16T01:02:53;11.13;;;8.50;;
60999;SDS011;46879;45.658;11.814;2022-10-16T01:08:05;12.07;;;8.93;;
60999;SDS011;46879;45.658;11.814;2022-10-16T01:13:11;13.15;;;9.25;;
60999;SDS011;46879;45.658;11.814;2022-10-16T01:18:32;11.80;;;8.82;;
60999;SDS011;46879;45.658;11.814;2022-10-16T01:28:56;13.23;;;9.35;;
60999;SDS011;46879;45.658;11.814;2022-10-16T01:34:02;9.77;;;8.23;;
60999;SDS011;46879;45.658;11.814;2022-10-16T01:39:03;11.30;;;9.25;;
60999;SDS011;46879;45.658;11.814;2022-10-16T01:44:06;10.07;;;8.25;;
60999;SDS011;46879;45.658;11.814;2022-10-16T01:49:08;11.75;;;8.73;;
60999;SDS011;46879;45.658;11.814;2022-10-16T01:54:09;12.18;;;8.85;;
60999;SDS011;46879;45.658;11.814;2022-10-16T01:59:15;8.88;;;7.97;;
60999;SDS011;46879;45.658;11.814;2022-10-16T02:04:17;9.77;;;7.68;;
60999;SDS011;46879;45.658;11.814;2022-10-16T02:09:19;14.38;;;8.80;;
60999;SDS011;46879;45.658;11.814;2022-10-16T02:14:19;10.82;;;8.20;;
60999;SDS011;46879;45.658;11.814;2022-10-16T02:19:19;10.43;;;7.82;;
60999;SDS011;46879;45.658;11.814;2022-10-16T02:24:27;10.70;;;8.35;;
60999;SDS011;46879;45.658;11.814;2022-10-16T02:29:29;11.50;;;8.70;;
60999;SDS011;46879;45.658;11.814;2022-10-16T02:34:31;14.13;;;9.20;;
60999;SDS011;46879;45.658;11.814;2022-10-16T02:39:31;10.68;;;8.75;;
60999;SDS011;46879;45.658;11.814;2022-10-16T02:44:32;12.65;;;8.77;;
60999;SDS011;46879;45.658;11.814;2022-10-16T02:49:32;11.85;;;8.43;;
60999;SDS011;46879;45.658;11.814;2022-10-16T02:54:33;15.40;;;8.82;;
60999;SDS011;46879;45.658;11.814;2022-10-16T02:59:33;12.65;;;9.23;;
60999;SDS011;46879;45.658;11.814;2022-10-16T03:04:33;12.27;;;9.45;;
60999;SDS011;46879;45.658;11.814;2022-10-16T03:09:33;10.83;;;9.23;;
60999;SDS011;46879;45.658;11.814;2022-10-16T03:14:34;11.18;;;8.73;;
60999;SDS011;46879;45.658;11.814;2022-10-16T03:19:34;11.40;;;9.35;;
60999;SDS011;46879;45.658;11.814;2022-10-16T03:24:35;11.68;;;9.20;;
60999;SDS011;46879;45.658;11.814;2022-10-16T03:29:36;12.48;;;9.65;;
60999;SDS011;46879;45.658;11.814;2022-10-16T03:34:36;11.02;;;9.27;;
60999;SDS011;46879;45.658;11.814;2022-10-16T03:39:36;15.02;;;10.73;;
60999;SDS011;46879;45.658;11.814;2022-10-16T03:44:36;13.02;;;9.70;;
60999;SDS011;46879;45.658;11.814;2022-10-16T03:49:37;13.35;;;10.02;;
60999;SDS011;46879;45.658;11.814;2022-10-16T03:54:37;15.00;;;10.70;;
60999;SDS011;46879;45.658;11.814;2022-10-16T03:59:37;11.63;;;9.38;;
60999;SDS011;46879;45.658;11.814;2022-10-16T04:04:37;11.88;;;9.68;;
60999;SDS011;46879;45.658;11.814;2022-10-16T04:09:38;13.02;;;10.35;;
60999;SDS011;46879;45.658;11.814;2022-10-16T04:14:38;11.50;;;9.70;;
60999;SDS011;46879;45.658;11.814;2022-10-16T04:19:38;11.02;;;9.30;;
60999;SDS011;46879;45.658;11.814;2022-10-16T04:24:38;12.23;;;10.00;;
60999;SDS011;46879;45.658;11.814;2022-10-16T04:29:39;13.32;;;9.55;;
60999;SDS011;46879;45.658;11.814;2022-10-16T04:34:39;12.43;;;9.23;;
60999;SDS011;46879;45.658;11.814;2022-10-16T04:39:40;14.75;;;10.60;;
60999;SDS011;46879;45.658;11.814;2022-10-16T04:44:40;13.82;;;10.32;;
60999;SDS011;46879;45.658;11.814;2022-10-16T04:49:40;11.10;;;9.68;;
60999;SDS011;46879;45.658;11.814;2022-10-16T04:54:40;12.90;;;9.95;;
60999;SDS011;46879;45.658;11.814;2022-10-16T04:59:41;11.55;;;9.10;;
60999;SDS011;46879;45.658;11.814;2022-10-16T05:04:41;10.10;;;7.88;;
60999;SDS011;46879;45.658;11.814;2022-10-16T05:09:41;12.38;;;9.63;;
60999;SDS011;46879;45.658;11.814;2022-10-16T05:14:41;12.10;;;9.15;;
60999;SDS011;46879;45.658;11.814;2022-10-16T05:19:42;9.90;;;8.82;;
60999;SDS011;46879;45.658;11.814;2022-10-16T05:24:42;14.73;;;9.13;;
60999;SDS011;46879;45.658;11.814;2022-10-16T05:29:42;11.13;;;9.13;;
60999;SDS011;46879;45.658;11.814;2022-10-16T05:34:42;9.75;;;8.68;;
60999;SDS011;46879;45.658;11.814;2022-10-16T05:39:43;11.07;;;8.90;;
60999;SDS011;46879;45.658;11.814;2022-10-16T05:44:43;10.98;;;9.05;;
60999;SDS011;46879;45.658;11.814;2022-10-16T05:49:43;9.25;;;8.25;;
60999;SDS011;46879;45.658;11.814;2022-10-16T05:54:44;9.53;;;8.50;;
60999;SDS011;46879;45.658;11.814;2022-10-16T05:59:44;14.52;;;8.60;;
60999;SDS011;46879;45.658;11.814;2022-10-16T06:04:45;9.63;;;8.63;;
60999;SDS011;46879;45.658;11.814;2022-10-16T06:09:49;9.05;;;8.15;;
60999;SDS011;46879;45.658;11.814;2022-10-16T06:14:49;10.43;;;8.90;;
60999;SDS011;46879;45.658;11.814;2022-10-16T06:19:50;13.15;;;9.68;;
60999;SDS011;46879;45.658;11.814;2022-10-16T06:24:50;21.85;;;9.73;;
60999;SDS011;46879;45.658;11.814;2022-10-16T06:29:51;18.23;;;9.35;;
60999;SDS011;46879;45.658;11.814;2022-10-16T06:34:51;20.02;;;9.82;;
60999;SDS011;46879;45.658;11.814;2022-10-16T06:39:51;17.05;;;12.25;;
60999;SDS011;46879;45.658;11.814;2022-10-16T06:44:54;21.00;;;13.45;;
60999;SDS011;46879;45.658;11.814;2022-10-16T06:49:54;20.13;;;13.77;;
60999;SDS011;46879;45.658;11.814;2022-10-16T06:54:55;19.42;;;13.48;;
60999;SDS011;46879;45.658;11.814;2022-10-16T06:59:55;22.02;;;14.73;;
60999;SDS011;46879;45.658;11.814;2022-10-16T07:04:55;21.30;;;13.70;;
60999;SDS011;46879;45.658;11.814;2022-10-16T07:09:56;18.55;;;13.75;;
60999;SDS011;46879;45.658;11.814;2022-10-16T07:14:57;19.60;;;13.43;;
60999;SDS011;46879;45.658;11.814;2022-10-16T07:19:57;23.50;;;16.67;;
60999;SDS011;46879;45.658;11.814;2022-10-16T07:24:57;25.90;;;19.53;;
60999;SDS011;46879;45.658;11.814;2022-10-16T07:29:58;42.13;;;27.65;;
60999;SDS011;46879;45.658;11.814;2022-10-16T07:34:58;37.38;;;25.80;;
60999;SDS011;46879;45.658;11.814;2022-10-16T07:39:58;37.63;;;21.15;;
60999;SDS011;46879;45.658;11.814;2022-10-16T07:44:58;32.92;;;23.75;;
60999;SDS011;46879;45.658;11.814;2022-10-16T07:49:59;31.98;;;22.67;;
60999;SDS011;46879;45.658;11.814;2022-10-16T07:54:59;41.88;;;25.05;;
60999;SDS011;46879;45.658;11.814;2022-10-16T07:59:59;38.55;;;25.40;;
60999;SDS011;46879;45.658;11.814;2022-10-16T08:04:59;34.90;;;22.38;;
60999;SDS011;46879;45.658;11.814;2022-10-16T08:10:00;33.70;;;23.77;;
60999;SDS011;46879;45.658;11.814;2022-10-16T08:15:00;37.03;;;25.07;;
60999;SDS011;46879;45.658;11.814;2022-10-16T08:20:00;34.80;;;23.15;;
60999;SDS011;46879;45.658;11.814;2022-10-16T08:25:02;35.50;;;23.70;;
60999;SDS011;46879;45.658;11.814;2022-10-16T08:30:02;32.08;;;23.67;;
60999;SDS011;46879;45.658;11.814;2022-10-16T08:35:02;33.10;;;23.07;;
60999;SDS011;46879;45.658;11.814;2022-10-16T08:40:04;31.23;;;21.27;;
60999;SDS011;46879;45.658;11.814;2022-10-16T08:50:24;28.02;;;21.73;;
60999;SDS011;46879;45.658;11.814;2022-10-16T09:00:26;29.83;;;20.83;;
60999;SDS011;46879;45.658;11.814;2022-10-16T09:05:44;38.42;;;21.08;;
60999;SDS011;46879;45.658;11.814;2022-10-16T09:15:58;27.15;;;20.73;;
60999;SDS011;46879;45.658;11.814;2022-10-16T09:26:14;23.98;;;19.05;;
60999;SDS011;46879;45.658;11.814;2022-10-16T09:31:16;24.02;;;17.42;;
60999;SDS011;46879;45.658;11.814;2022-10-16T09:36:17;32.60;;;18.30;;
60999;SDS011;46879;45.658;11.814;2022-10-16T09:41:19;25.20;;;19.13;;
60999;SDS011;46879;45.658;11.814;2022-10-16T09:46:27;23.02;;;18.75;;
60999;SDS011;46879;45.658;11.814;2022-10-16T09:51:35;22.90;;;18.07;;
60999;SDS011;46879;45.658;11.814;2022-10-16T09:56:36;25.57;;;18.53;;
60999;SDS011;46879;45.658;11.814;2022-10-16T10:01:49;22.30;;;18.42;;
60999;SDS011;46879;45.658;11.814;2022-10-16T10:06:54;23.70;;;18.25;;
60999;SDS011;46879;45.658;11.814;2022-10-16T10:11:56;23.98;;;17.23;;
60999;SDS011;46879;45.658;11.814;2022-10-16T10:22:13;23.13;;;17.27;;
60999;SDS011;46879;45.658;11.814;2022-10-16T10:27:14;24.48;;;17.23;;
60999;SDS011;46879;45.658;11.814;2022-10-16T10:32:18;22.92;;;16.58;;
60999;SDS011;46879;45.658;11.814;2022-10-16T10:42:36;20.50;;;15.85;;
60999;SDS011;46879;45.658;11.814;2022-10-16T10:47:48;19.15;;;16.33;;
60999;SDS011;46879;45.658;11.814;2022-10-16T10:53:04;23.88;;;16.60;;
60999;SDS011;46879;45.658;11.814;2022-10-16T11:08:22;21.83;;;15.80;;
60999;SDS011;46879;45.658;11.814;2022-10-16T11:13:31;20.13;;;15.38;;
60999;SDS011;46879;45.658;11.814;2022-10-16T11:18:44;19.38;;;15.98;;
60999;SDS011;46879;45.658;11.814;2022-10-16T11:23:48;24.65;;;16.02;;
60999;SDS011;46879;45.658;11.814;2022-10-16T11:28:52;28.20;;;19.38;;
60999;SDS011;46879;45.658;11.814;2022-10-16T11:49:14;23.02;;;16.92;;
60999;SDS011;46879;45.658;11.814;2022-10-16T11:54:23;25.15;;;17.30;;
60999;SDS011;46879;45.658;11.814;2022-10-16T11:59:32;23.40;;;16.88;;
60999;SDS011;46879;45.658;11.814;2022-10-16T12:04:36;26.08;;;17.77;;
60999;SDS011;46879;45.658;11.814;2022-10-16T12:09:45;19.33;;;15.18;;
60999;SDS011;46879;45.658;11.814;2022-10-16T12:14:45;23.30;;;16.25;;
60999;SDS011;46879;45.658;11.814;2022-10-16T12:19:56;22.55;;;16.08;;
60999;SDS011;46879;45.658;11.814;2022-10-16T12:24:56;18.55;;;15.52;;
60999;SDS011;46879;45.658;11.814;2022-10-16T12:29:58;22.50;;;16.13;;
60999;SDS011;46879;45.658;11.814;2022-10-16T12:34:59;19.40;;;14.88;;
60999;SDS011;46879;45.658;11.814;2022-10-16T12:40:00;22.73;;;15.82;;
60999;SDS011;46879;45.658;11.814;2022-10-16T12:45:33;20.27;;;15.93;;
60999;SDS011;46879;45.658;11.814;2022-10-16T12:50:35;23.20;;;15.80;;
60999;SDS011;46879;45.658;11.814;2022-10-16T12:55:42;18.67;;;15.82;;
60999;SDS011;46879;45.658;11.814;2022-10-16T13:00:53;22.15;;;16.23;;
60999;SDS011;46879;45.658;11.814;2022-10-16T13:31:51;18.10;;;14.17;;
60999;SDS011;46879;45.658;11.814;2022-10-16T13:36:52;16.92;;;14.20;;
60999;SDS011;46879;45.658;11.814;2022-10-16T13:42:03;15.32;;;13.18;;
60999;SDS011;46879;45.658;11.814;2022-10-16T13:47:04;16.63;;;13.38;;
60999;SDS011;46879;45.658;11.814;2022-10-16T13:52:05;19.80;;;14.45;;
60999;SDS011;46879;45.658;11.814;2022-10-16T13:57:05;19.23;;;13.90;;
60999;SDS011;46879;45.658;11.814;2022-10-16T14:02:26;17.85;;;14.07;;
60999;SDS011;46879;45.658;11.814;2022-10-16T14:07:31;17.42;;;13.43;;
60999;SDS011;46879;45.658;11.814;2022-10-16T14:12:31;17.02;;;13.27;;
60999;SDS011;46879;45.658;11.814;2022-10-16T14:17:32;16.23;;;13.00;;
60999;SDS011;46879;45.658;11.814;2022-10-16T14:27:35;18.30;;;13.33;;
60999;SDS011;46879;45.658;11.814;2022-10-16T14:32:41;15.80;;;13.30;;
60999;SDS011;46879;45.658;11.814;2022-10-16T14:37:41;19.48;;;12.88;;
60999;SDS011;46879;45.658;11.814;2022-10-16T14:42:43;19.73;;;13.88;;
60999;SDS011;46879;45.658;11.814;2022-10-16T14:47:48;18.60;;;12.95;;
60999;SDS011;46879;45.658;11.814;2022-10-16T14:52:49;18.35;;;13.43;;
60999;SDS011;46879;45.658;11.814;2022-10-16T14:57:50;17.88;;;13.52;;
60999;SDS011;46879;45.658;11.814;2022-10-16T15:02:50;18.77;;;12.48;;
60999;SDS011;46879;45.658;11.814;2022-10-16T15:07:51;20.38;;;12.70;;
60999;SDS011;46879;45.658;11.814;2022-10-16T15:12:53;20.08;;;12.68;;
60999;SDS011;46879;45.658;11.814;2022-10-16T15:17:54;16.08;;;12.07;;
60999;SDS011;46879;45.658;11.814;2022-10-16T15:22:56;17.00;;;12.82;;
60999;SDS011;46879;45.658;11.814;2022-10-16T15:27:57;15.48;;;12.00;;
60999;SDS011;46879;45.658;11.814;2022-10-16T15:32:58;18.95;;;12.35;;
60999;SDS011;46879;45.658;11.814;2022-10-16T15:37:59;17.83;;;13.23;;
60999;SDS011;46879;45.658;11.814;2022-10-16T15:42:59;17.90;;;12.98;;
60999;SDS011;46879;45.658;11.814;2022-10-16T15:48:00;24.67;;;13.32;;
60999;SDS011;46879;45.658;11.814;2022-10-16T15:53:00;24.27;;;12.73;;
60999;SDS011;46879;45.658;11.814;2022-10-16T15:58:00;16.95;;;13.18;;
60999;SDS011;46879;45.658;11.814;2022-10-16T16:03:00;21.67;;;12.55;;
60999;SDS011;46879;45.658;11.814;2022-10-16T16:08:01;20.25;;;13.30;;
60999;SDS011;46879;45.658;11.814;2022-10-16T16:13:03;23.02;;;13.93;;
60999;SDS011;46879;45.658;11.814;2022-10-16T16:18:05;17.05;;;12.07;;
60999;SDS011;46879;45.658;11.814;2022-10-16T16:23:05;15.88;;;11.73;;
60999;SDS011;46879;45.658;11.814;2022-10-16T16:28:06;20.60;;;12.77;;
60999;SDS011;46879;45.658;11.814;2022-10-16T16:33:07;16.38;;;11.82;;
60999;SDS011;46879;45.658;11.814;2022-10-16T16:38:07;18.70;;;11.80;;
60999;SDS011;46879;45.658;11.814;2022-10-16T16:43:07;20.90;;;12.45;;
60999;SDS011;46879;45.658;11.814;2022-10-16T16:48:08;18.08;;;12.48;;
60999;SDS011;46879;45.658;11.814;2022-10-16T16:53:08;17.85;;;12.38;;
60999;SDS011;46879;45.658;11.814;2022-10-16T16:58:08;21.95;;;11.43;;
60999;SDS011;46879;45.658;11.814;2022-10-16T17:03:09;17.05;;;12.27;;
60999;SDS011;46879;45.658;11.814;2022-10-16T17:08:10;18.58;;;13.45;;
60999;SDS011;46879;45.658;11.814;2022-10-16T17:13:10;22.90;;;13.25;;
60999;SDS011;46879;45.658;11.814;2022-10-16T17:18:11;17.55;;;12.80;;
60999;SDS011;46879;45.658;11.814;2022-10-16T17:23:12;16.17;;;12.95;;
60999;SDS011;46879;45.658;11.814;2022-10-16T17:28:12;19.05;;;12.98;;
60999;SDS011;46879;45.658;11.814;2022-10-16T17:33:13;23.25;;;13.93;;
60999;SDS011;46879;45.658;11.814;2022-10-16T17:38:13;25.97;;;12.47;;
60999;SDS011;46879;45.658;11.814;2022-10-16T17:43:14;25.50;;;14.57;;
60999;SDS011;46879;45.658;11.814;2022-10-16T17:48:14;20.85;;;13.43;;
60999;SDS011;46879;45.658;11.814;2022-10-16T17:53:14;20.60;;;14.67;;
60999;SDS011;46879;45.658;11.814;2022-10-16T17:58:14;22.83;;;12.80;;
60999;SDS011;46879;45.658;11.814;2022-10-16T18:03:15;21.97;;;12.67;;
60999;SDS011;46879;45.658;11.814;2022-10-16T18:08:15;17.13;;;12.63;;
60999;SDS011;46879;45.658;11.814;2022-10-16T18:13:16;17.48;;;12.50;;
60999;SDS011;46879;45.658;11.814;2022-10-16T18:18:16;16.35;;;12.50;;
60999;SDS011;46879;45.658;11.814;2022-10-16T18:23:16;17.13;;;13.00;;
60999;SDS011;46879;45.658;11.814;2022-10-16T18:28:17;16.43;;;12.53;;
60999;SDS011;46879;45.658;11.814;2022-10-16T18:33:18;19.60;;;13.02;;
60999;SDS011;46879;45.658;11.814;2022-10-16T18:38:18;21.42;;;13.35;;
60999;SDS011;46879;45.658;11.814;2022-10-16T18:43:19;25.48;;;13.65;;
60999;SDS011;46879;45.658;11.814;2022-10-16T18:48:20;22.98;;;12.88;;
60999;SDS011;46879;45.658;11.814;2022-10-16T18:53:20;21.17;;;14.07;;
60999;SDS011;46879;45.658;11.814;2022-10-16T18:58:20;24.40;;;16.27;;
60999;SDS011;46879;45.658;11.814;2022-10-16T19:03:20;26.37;;;15.00;;
60999;SDS011;46879;45.658;11.814;2022-10-16T19:08:21;28.80;;;15.10;;
60999;SDS011;46879;45.658;11.814;2022-10-16T19:13:21;26.70;;;15.40;;
60999;SDS011;46879;45.658;11.814;2022-10-16T19:18:21;24.73;;;15.80;;
60999;SDS011;46879;45.658;11.814;2022-10-16T19:23:22;27.60;;;14.77;;
60999;SDS011;46879;45.658;11.814;2022-10-16T19:34:00;22.37;;;15.20;;
60999;SDS011;46879;45.658;11.814;2022-10-16T19:39:06;27.50;;;15.50;;
60999;SDS011;46879;45.658;11.814;2022-10-16T19:44:07;26.20;;;15.77;;
60999;SDS011;46879;45.658;11.814;2022-10-16T19:49:09;23.02;;;14.80;;
60999;SDS011;46879;45.658;11.814;2022-10-16T19:54:10;22.63;;;15.32;;
60999;SDS011;46879;45.658;11.814;2022-10-16T19:59:11;27.20;;;14.98;;
60999;SDS011;46879;45.658;11.814;2022-10-16T20:04:12;27.63;;;14.38;;
60999;SDS011;46879;45.658;11.814;2022-10-16T20:09:13;16.55;;;13.05;;
60999;SDS011;46879;45.658;11.814;2022-10-16T20:14:13;20.70;;;13.38;;
60999;SDS011;46879;45.658;11.814;2022-10-16T20:19:14;19.83;;;13.47;;
60999;SDS011;46879;45.658;11.814;2022-10-16T20:24:14;20.80;;;13.05;;
60999;SDS011;46879;45.658;11.814;2022-10-16T20:29:15;19.63;;;13.02;;
60999;SDS011;46879;45.658;11.814;2022-10-16T20:34:15;20.50;;;12.17;;
60999;SDS011;46879;45.658;11.814;2022-10-16T20:39:15;21.70;;;13.20;;
60999;SDS011;46879;45.658;11.814;2022-10-16T20:44:16;20.83;;;12.97;;
60999;SDS011;46879;45.658;11.814;2022-10-16T20:49:16;16.70;;;12.85;;
60999;SDS011;46879;45.658;11.814;2022-10-16T20:54:17;21.00;;;12.40;;
60999;SDS011;46879;45.658;11.814;2022-10-16T20:59:17;18.17;;;12.47;;
60999;SDS011;46879;45.658;11.814;2022-10-16T21:04:17;17.67;;;12.30;;
60999;SDS011;46879;45.658;11.814;2022-10-16T21:09:18;17.08;;;11.75;;
60999;SDS011;46879;45.658;11.814;2022-10-16T21:14:18;15.33;;;11.40;;
60999;SDS011;46879;45.658;11.814;2022-10-16T21:19:20;16.25;;;11.63;;
60999;SDS011;46879;45.658;11.814;2022-10-16T21:24:22;19.88;;;11.02;;
60999;SDS011;46879;45.658;11.814;2022-10-16T21:29:22;27.47;;;12.07;;
60999;SDS011;46879;45.658;11.814;2022-10-16T21:34:23;15.13;;;11.23;;
60999;SDS011;46879;45.658;11.814;2022-10-16T21:39:23;18.13;;;11.40;;
60999;SDS011;46879;45.658;11.814;2022-10-16T21:44:24;33.65;;;10.85;;
60999;SDS011;46879;45.658;11.814;2022-10-16T21:49:24;16.40;;;10.88;;
60999;SDS011;46879;45.658;11.814;2022-10-16T21:54:24;20.23;;;10.63;;
60999;SDS011;46879;45.658;11.814;2022-10-16T21:59:24;26.98;;;11.68;;
60999;SDS011;46879;45.658;11.814;2022-10-16T22:04:25;19.67;;;9.68;;
60999;SDS011;46879;45.658;11.814;2022-10-16T22:09:25;17.05;;;10.02;;
60999;SDS011;46879;45.658;11.814;2022-10-16T22:14:25;20.73;;;10.60;;
60999;SDS011;46879;45.658;11.814;2022-10-16T22:19:26;20.38;;;9.98;;
60999;SDS011;46879;45.658;11.814;2022-10-16T22:24:26;15.88;;;10.70;;
60999;SDS011;46879;45.658;11.814;2022-10-16T22:29:27;18.88;;;9.95;;
60999;SDS011;46879;45.658;11.814;2022-10-16T22:34:27;12.80;;;9.15;;
60999;SDS011;46879;45.658;11.814;2022-10-16T22:39:28;14.93;;;9.63;;
60999;SDS011;46879;45.658;11.814;2022-10-16T22:44:29;16.02;;;10.40;;
60999;SDS011;46879;45.658;11.814;2022-10-16T22:49:29;14.93;;;10.02;;
60999;SDS011;46879;45.658;11.814;2022-10-16T22:54:29;11.63;;;9.75;;
60999;SDS011;46879;45.658;11.814;2022-10-16T22:59:29;17.45;;;9.50;;
60999;SDS011;46879;45.658;11.814;2022-10-16T23:04:30;15.55;;;10.02;;
60999;SDS011;46879;45.658;11.814;2022-10-16T23:09:31;14.45;;;9.50;;
60999;SDS011;46879;45.658;11.814;2022-10-16T23:14:31;14.25;;;9.15;;
60999;SDS011;46879;45.658;11.814;2022-10-16T23:19:31;16.95;;;9.45;;
60999;SDS011;46879;45.658;11.814;2022-10-16T23:24:32;12.45;;;9.07;;
60999;SDS011;46879;45.658;11.814;2022-10-16T23:29:32;17.60;;;9.73;;
60999;SDS011;46879;45.658;11.814;2022-10-16T23:34:32;10.40;;;8.85;;
60999;SDS011;46879;45.658;11.814;2022-10-16T23:39:33;13.60;;;9.60;;
60999;SDS011;46879;45.658;11.814;2022-10-16T23:44:33;16.50;;;9.15;;
60999;SDS011;46879;45.658;11.814;2022-10-16T23:49:34;13.33;;;8.50;;
60999;SDS011;46879;45.658;11.814;2022-10-16T23:54:34;16.92;;;9.85;;
60999;SDS011;46879;45.658;11.814;2022-10-16T23:59:34;17.00;;;9.18;;
